Nicole Leigh Reinauer — WCZ5696 — position and weather

sailwx.info

Track history (hours):
 
Tides and Currents Weather Stations Pressure Air Temp Water Temp Dewpoint Dewpoint Depression Visibility Wind Speed Wind Dir Waves Ship Positions

Nicole Leigh Reinauer

Owner: H A REINAUER INC, STATEN ISLAND, NY. More information available from US FCC via Universal Licensing System and Coast Guard Vessel Documentation Center.

Last reported at 2016-Jun-28 07:29 UTC. Time now 2016-Jun-29 18:22 UTC.
Position N 27°05' W 080°00'.

Length 167 m; draft 8.2 m.

Type: Tanker. MMSI: 366774330.

Date/timePositionNaut miles runAvg speedWind from/ knotsBaromVisibWave heightAir tempDewpointWater temp
2016-Jun-28 07:29N 27°05' W 080°00'910.1
2016-Jun-28 06:33N 26°56' W 079°59'2311.3
2016-Jun-28 04:33N 26°33' W 079°59'1212.4
2016-Jun-28 03:33N 26°21' W 079°60'1212.5
2016-Jun-28 02:33N 26°08' W 080°01'1212.5
2016-Jun-28 01:33N 25°56' W 080°02'1312.8
2016-Jun-28 00:33N 25°43' W 080°02'180 5.2
2016-Jun-26 13:33N 27°41' W 082°35'1110.6
2016-Jun-26 12:33N 27°49' W 082°27'7 6.6
2016-Jun-26 11:33N 27°55' W 082°27'0 0.0
2016-Jun-26 10:33N 27°55' W 082°27'0 0.0
2016-Jun-26 09:33N 27°55' W 082°27'0 0.0
2016-Jun-26 08:33N 27°55' W 082°27'0 0.0
2016-Jun-26 07:33N 27°55' W 082°27'0 0.0
2016-Jun-26 06:33N 27°55' W 082°27'0 0.0
2016-Jun-26 05:33N 27°55' W 082°27'0 0.0
2016-Jun-26 04:33N 27°55' W 082°27'0 0.0
2016-Jun-26 03:33N 27°55' W 082°27'0 0.0
2016-Jun-26 02:33N 27°55' W 082°27'0 0.0
2016-Jun-26 01:33N 27°55' W 082°27'7 6.7
2016-Jun-26 00:33N 27°48' W 082°27'1010.0
2016-Jun-25 23:33N 27°41' W 082°35'416 9.7
2016-Jun-24 04:34N 29°58' W 090°03'9 8.7
2016-Jun-24 03:34N 29°55' W 090°13'  
2016-Jun-20 06:33N 29°56' W 090°11'6 6.2
2016-Jun-20 05:33N 29°56' W 090°04'3 2.5
2016-Jun-20 04:33N 29°57' W 090°01'0 0.0
2016-Jun-20 03:33N 29°57' W 090°01'0 0.0
2016-Jun-20 02:33N 29°57' W 090°01'0 0.0
2016-Jun-20 01:33N 29°57' W 090°01'0 0.0
2016-Jun-20 00:33N 29°57' W 090°01'0 0.0
2016-Jun-19 23:33N 29°57' W 090°01'0 0.0
2016-Jun-19 22:30N 29°57' W 090°01'0 0.0
2016-Jun-19 21:33N 29°57' W 090°01'0 0.0
2016-Jun-19 20:30N 29°57' W 090°01'0 0.0
2016-Jun-19 19:33N 29°57' W 090°01'0 0.0
2016-Jun-19 18:33N 29°57' W 090°01'0 0.0
2016-Jun-19 17:33N 29°57' W 090°01'0 0.0
2016-Jun-19 16:33N 29°57' W 090°01'0 0.0
2016-Jun-19 15:33N 29°57' W 090°01'0 0.0
2016-Jun-19 14:33N 29°57' W 090°01'0 0.0
2016-Jun-19 13:27N 29°57' W 090°01'0 0.0
2016-Jun-19 12:33N 29°57' W 090°01'0 0.0
2016-Jun-19 11:33N 29°57' W 090°01'0 0.0
2016-Jun-19 10:33N 29°57' W 090°01'0 0.0
2016-Jun-19 09:33N 29°57' W 090°01'0 0.0
2016-Jun-19 08:34N 29°57' W 090°01'33 6.6
2016-Jun-19 03:34N 29°29' W 089°41'9 8.1
2016-Jun-19 02:26N 29°22' W 089°34'  
Track history (hours):
 
Tides and Currents Weather Stations Pressure Air Temp Water Temp Dewpoint Dewpoint Depression Visibility Wind Speed Wind Dir Waves Ship Positions

Nicole Leigh Reinauer

Owner: H A REINAUER INC, STATEN ISLAND, NY. More information available from US FCC via Universal Licensing System and Coast Guard Vessel Documentation Center.

Last reported at 2016-Jun-28 07:29 UTC. Time now 2016-Jun-29 18:22 UTC.
Position N 27°05' W 080°00'.

Length 167 m; draft 8.2 m.

Type: Tanker. MMSI: 366774330.

Date/timePositionNaut miles runAvg speedWind from/ knotsBaromVisibWave heightAir tempDewpointWater temp
2016-Jun-28 07:29N 27°05' W 080°00'910.1
2016-Jun-28 06:33N 26°56' W 079°59'2311.3
2016-Jun-28 04:33N 26°33' W 079°59'1212.4
2016-Jun-28 03:33N 26°21' W 079°60'1212.5
2016-Jun-28 02:33N 26°08' W 080°01'1212.5
2016-Jun-28 01:33N 25°56' W 080°02'1312.8
2016-Jun-28 00:33N 25°43' W 080°02'180 5.2
2016-Jun-26 13:33N 27°41' W 082°35'1110.6
2016-Jun-26 12:33N 27°49' W 082°27'7 6.6
2016-Jun-26 11:33N 27°55' W 082°27'0 0.0
2016-Jun-26 10:33N 27°55' W 082°27'0 0.0
2016-Jun-26 09:33N 27°55' W 082°27'0 0.0
2016-Jun-26 08:33N 27°55' W 082°27'0 0.0
2016-Jun-26 07:33N 27°55' W 082°27'0 0.0
2016-Jun-26 06:33N 27°55' W 082°27'0 0.0
2016-Jun-26 05:33N 27°55' W 082°27'0 0.0
2016-Jun-26 04:33N 27°55' W 082°27'0 0.0
2016-Jun-26 03:33N 27°55' W 082°27'0 0.0
2016-Jun-26 02:33N 27°55' W 082°27'0 0.0
2016-Jun-26 01:33N 27°55' W 082°27'7 6.7
2016-Jun-26 00:33N 27°48' W 082°27'1010.0
2016-Jun-25 23:33N 27°41' W 082°35'416 9.7
2016-Jun-24 04:34N 29°58' W 090°03'9 8.7
2016-Jun-24 03:34N 29°55' W 090°13'  
2016-Jun-20 06:33N 29°56' W 090°11'6 6.2
2016-Jun-20 05:33N 29°56' W 090°04'3 2.5
2016-Jun-20 04:33N 29°57' W 090°01'0 0.0
2016-Jun-20 03:33N 29°57' W 090°01'0 0.0
2016-Jun-20 02:33N 29°57' W 090°01'0 0.0
2016-Jun-20 01:33N 29°57' W 090°01'0 0.0
2016-Jun-20 00:33N 29°57' W 090°01'0 0.0
2016-Jun-19 23:33N 29°57' W 090°01'0 0.0
2016-Jun-19 22:30N 29°57' W 090°01'0 0.0
2016-Jun-19 21:33N 29°57' W 090°01'0 0.0
2016-Jun-19 20:30N 29°57' W 090°01'0 0.0
2016-Jun-19 19:33N 29°57' W 090°01'0 0.0
2016-Jun-19 18:33N 29°57' W 090°01'0 0.0
2016-Jun-19 17:33N 29°57' W 090°01'0 0.0
2016-Jun-19 16:33N 29°57' W 090°01'0 0.0
2016-Jun-19 15:33N 29°57' W 090°01'0 0.0
2016-Jun-19 14:33N 29°57' W 090°01'0 0.0
2016-Jun-19 13:27N 29°57' W 090°01'0 0.0
2016-Jun-19 12:33N 29°57' W 090°01'0 0.0
2016-Jun-19 11:33N 29°57' W 090°01'0 0.0
2016-Jun-19 10:33N 29°57' W 090°01'0 0.0
2016-Jun-19 09:33N 29°57' W 090°01'0 0.0
2016-Jun-19 08:34N 29°57' W 090°01'33 6.6
2016-Jun-19 03:34N 29°29' W 089°41'9 8.1
2016-Jun-19 02:26N 29°22' W 089°34'  

Dump ship's entire track history